sensor_id;sensor_type;location;lat;lon;timestamp;temperature;humidity
23873;DHT22;42884;50.718;4.630;2023-03-03T00:02:13;1.20;99.90
23873;DHT22;42884;50.718;4.630;2023-03-03T00:04:39;1.30;99.90
23873;DHT22;42884;50.718;4.630;2023-03-03T00:07:04;1.30;99.90
23873;DHT22;42884;50.718;4.630;2023-03-03T00:09:30;1.20;99.90
23873;DHT22;42884;50.718;4.630;2023-03-03T00:11:56;1.30;99.90
23873;DHT22;42884;50.718;4.630;2023-03-03T00:14:30;1.30;99.90
23873;DHT22;42884;50.718;4.630;2023-03-03T00:16:56;1.30;99.90
23873;DHT22;42884;50.718;4.630;2023-03-03T00:19:22;1.30;99.90
23873;DHT22;42884;50.718;4.630;2023-03-03T00:21:49;1.30;99.90
23873;DHT22;42884;50.718;4.630;2023-03-03T00:26:46;1.20;99.90
23873;DHT22;42884;50.718;4.630;2023-03-03T00:29:22;1.10;99.90
23873;DHT22;42884;50.718;4.630;2023-03-03T00:31:48;1.10;99.90
23873;DHT22;42884;50.718;4.630;2023-03-03T00:36:43;1.10;99.90
23873;DHT22;42884;50.718;4.630;2023-03-03T00:39:16;1.00;99.90
23873;DHT22;42884;50.718;4.630;2023-03-03T00:41:43;1.00;99.90
23873;DHT22;42884;50.718;4.630;2023-03-03T00:49:44;1.10;99.90
23873;DHT22;42884;50.718;4.630;2023-03-03T00:52:13;1.10;99.90
23873;DHT22;42884;50.718;4.630;2023-03-03T00:54:40;1.10;99.90
23873;DHT22;42884;50.718;4.630;2023-03-03T00:57:06;1.10;99.90
23873;DHT22;42884;50.718;4.630;2023-03-03T00:59:31;1.10;99.90
23873;DHT22;42884;50.718;4.630;2023-03-03T01:01:57;1.00;99.90
23873;DHT22;42884;50.718;4.630;2023-03-03T01:04:23;1.10;99.90
23873;DHT22;42884;50.718;4.630;2023-03-03T01:06:48;1.00;99.90
23873;DHT22;42884;50.718;4.630;2023-03-03T01:09:14;1.00;99.90
23873;DHT22;42884;50.718;4.630;2023-03-03T01:11:39;0.90;99.90
23873;DHT22;42884;50.718;4.630;2023-03-03T01:14:05;0.90;99.90
23873;DHT22;42884;50.718;4.630;2023-03-03T01:16:31;0.90;99.90
23873;DHT22;42884;50.718;4.630;2023-03-03T01:18:58;0.80;99.90
23873;DHT22;42884;50.718;4.630;2023-03-03T01:21:23;0.80;99.90
23873;DHT22;42884;50.718;4.630;2023-03-03T01:23:49;0.80;99.90
23873;DHT22;42884;50.718;4.630;2023-03-03T01:26:15;0.70;99.90
23873;DHT22;42884;50.718;4.630;2023-03-03T01:28:41;0.70;99.90
23873;DHT22;42884;50.718;4.630;2023-03-03T01:31:06;0.70;99.90
23873;DHT22;42884;50.718;4.630;2023-03-03T01:33:33;0.60;99.90
23873;DHT22;42884;50.718;4.630;2023-03-03T01:35:58;0.60;99.90
23873;DHT22;42884;50.718;4.630;2023-03-03T01:38:24;0.60;99.90
23873;DHT22;42884;50.718;4.630;2023-03-03T01:40:54;0.50;99.90
23873;DHT22;42884;50.718;4.630;2023-03-03T01:43:19;0.50;99.90
23873;DHT22;42884;50.718;4.630;2023-03-03T01:50:41;0.40;99.90
23873;DHT22;42884;50.718;4.630;2023-03-03T01:53:15;0.30;99.90
23873;DHT22;42884;50.718;4.630;2023-03-03T01:55:41;0.30;99.90
23873;DHT22;42884;50.718;4.630;2023-03-03T01:58:10;0.30;99.90
23873;DHT22;42884;50.718;4.630;2023-03-03T02:00:38;0.30;99.90
23873;DHT22;42884;50.718;4.630;2023-03-03T02:03:05;0.30;99.90
23873;DHT22;42884;50.718;4.630;2023-03-03T02:05:30;0.30;99.90
23873;DHT22;42884;50.718;4.630;2023-03-03T02:07:56;0.30;99.90
23873;DHT22;42884;50.718;4.630;2023-03-03T02:10:22;0.30;99.90
23873;DHT22;42884;50.718;4.630;2023-03-03T02:12:49;0.30;99.90
23873;DHT22;42884;50.718;4.630;2023-03-03T02:17:44;0.40;99.90
23873;DHT22;42884;50.718;4.630;2023-03-03T02:20:12;0.40;99.90
23873;DHT22;42884;50.718;4.630;2023-03-03T02:23:01;0.20;99.90
23873;DHT22;42884;50.718;4.630;2023-03-03T02:25:33;0.20;99.90
23873;DHT22;42884;50.718;4.630;2023-03-03T02:28:01;0.30;99.90
23873;DHT22;42884;50.718;4.630;2023-03-03T02:30:27;0.30;99.90
23873;DHT22;42884;50.718;4.630;2023-03-03T02:32:52;0.30;99.90
23873;DHT22;42884;50.718;4.630;2023-03-03T02:35:25;0.30;99.90
23873;DHT22;42884;50.718;4.630;2023-03-03T02:37:51;0.30;99.90
23873;DHT22;42884;50.718;4.630;2023-03-03T02:40:17;0.30;99.90
23873;DHT22;42884;50.718;4.630;2023-03-03T02:42:44;0.30;99.90
23873;DHT22;42884;50.718;4.630;2023-03-03T02:45:10;0.30;99.90
23873;DHT22;42884;50.718;4.630;2023-03-03T02:47:36;0.30;99.90
23873;DHT22;42884;50.718;4.630;2023-03-03T02:50:02;0.20;99.90
23873;DHT22;42884;50.718;4.630;2023-03-03T02:52:27;0.20;99.90
23873;DHT22;42884;50.718;4.630;2023-03-03T02:54:53;0.20;99.90
23873;DHT22;42884;50.718;4.630;2023-03-03T02:57:18;0.10;99.90
23873;DHT22;42884;50.718;4.630;2023-03-03T02:59:44;0.10;99.90
23873;DHT22;42884;50.718;4.630;2023-03-03T03:02:09;0.10;99.90
23873;DHT22;42884;50.718;4.630;2023-03-03T03:04:36;0.20;99.90
23873;DHT22;42884;50.718;4.630;2023-03-03T03:07:01;0.10;99.90
23873;DHT22;42884;50.718;4.630;2023-03-03T03:09:27;0.10;99.90
23873;DHT22;42884;50.718;4.630;2023-03-03T03:11:53;0.10;99.90
23873;DHT22;42884;50.718;4.630;2023-03-03T03:14:19;0.10;99.90
23873;DHT22;42884;50.718;4.630;2023-03-03T03:16:44;0.20;99.90
23873;DHT22;42884;50.718;4.630;2023-03-03T03:19:10;0.20;99.90
23873;DHT22;42884;50.718;4.630;2023-03-03T03:21:35;0.30;99.90
23873;DHT22;42884;50.718;4.630;2023-03-03T03:24:01;0.30;99.90
23873;DHT22;42884;50.718;4.630;2023-03-03T03:26:27;0.40;99.90
23873;DHT22;42884;50.718;4.630;2023-03-03T03:28:52;0.40;99.90
23873;DHT22;42884;50.718;4.630;2023-03-03T03:31:18;0.50;99.90
23873;DHT22;42884;50.718;4.630;2023-03-03T03:33:44;0.50;99.90
23873;DHT22;42884;50.718;4.630;2023-03-03T03:36:10;0.60;99.90
23873;DHT22;42884;50.718;4.630;2023-03-03T03:38:36;0.60;99.90
23873;DHT22;42884;50.718;4.630;2023-03-03T03:41:02;0.70;99.90
23873;DHT22;42884;50.718;4.630;2023-03-03T03:43:28;0.70;99.90
23873;DHT22;42884;50.718;4.630;2023-03-03T03:45:54;0.80;99.90
23873;DHT22;42884;50.718;4.630;2023-03-03T03:48:20;0.90;99.90
23873;DHT22;42884;50.718;4.630;2023-03-03T03:50:46;1.00;99.90
23873;DHT22;42884;50.718;4.630;2023-03-03T03:53:12;1.00;99.90
23873;DHT22;42884;50.718;4.630;2023-03-03T03:55:38;1.10;99.90
23873;DHT22;42884;50.718;4.630;2023-03-03T03:58:03;1.10;99.90
23873;DHT22;42884;50.718;4.630;2023-03-03T04:00:29;1.20;99.90
23873;DHT22;42884;50.718;4.630;2023-03-03T04:02:55;1.30;99.90
23873;DHT22;42884;50.718;4.630;2023-03-03T04:05:20;1.30;99.90
23873;DHT22;42884;50.718;4.630;2023-03-03T04:07:46;1.40;99.90
23873;DHT22;42884;50.718;4.630;2023-03-03T04:10:11;1.40;99.90
23873;DHT22;42884;50.718;4.630;2023-03-03T04:12:37;1.40;99.90
23873;DHT22;42884;50.718;4.630;2023-03-03T04:15:04;1.60;99.90
23873;DHT22;42884;50.718;4.630;2023-03-03T04:17:30;1.60;99.90
23873;DHT22;42884;50.718;4.630;2023-03-03T04:19:56;1.70;99.90
23873;DHT22;42884;50.718;4.630;2023-03-03T04:22:22;1.80;99.90
23873;DHT22;42884;50.718;4.630;2023-03-03T04:24:47;1.80;99.90
23873;DHT22;42884;50.718;4.630;2023-03-03T04:27:13;1.90;99.90
23873;DHT22;42884;50.718;4.630;2023-03-03T04:29:39;1.90;99.90
23873;DHT22;42884;50.718;4.630;2023-03-03T04:32:05;1.90;99.90
23873;DHT22;42884;50.718;4.630;2023-03-03T04:34:31;1.90;99.90
23873;DHT22;42884;50.718;4.630;2023-03-03T04:36:56;1.90;99.90
23873;DHT22;42884;50.718;4.630;2023-03-03T04:39:22;1.90;99.90
23873;DHT22;42884;50.718;4.630;2023-03-03T04:41:48;1.90;99.90
23873;DHT22;42884;50.718;4.630;2023-03-03T04:44:13;2.00;99.90
23873;DHT22;42884;50.718;4.630;2023-03-03T04:46:39;2.00;99.90
23873;DHT22;42884;50.718;4.630;2023-03-03T04:49:04;2.00;99.90
23873;DHT22;42884;50.718;4.630;2023-03-03T04:51:33;1.90;99.90
23873;DHT22;42884;50.718;4.630;2023-03-03T04:53:58;1.80;99.90
23873;DHT22;42884;50.718;4.630;2023-03-03T04:56:24;1.70;99.90
23873;DHT22;42884;50.718;4.630;2023-03-03T04:58:50;1.70;99.90
23873;DHT22;42884;50.718;4.630;2023-03-03T05:01:16;1.50;99.90
23873;DHT22;42884;50.718;4.630;2023-03-03T05:03:43;1.60;99.90
23873;DHT22;42884;50.718;4.630;2023-03-03T05:06:09;1.70;99.90
23873;DHT22;42884;50.718;4.630;2023-03-03T05:08:34;1.80;99.90
23873;DHT22;42884;50.718;4.630;2023-03-03T05:11:00;1.90;99.90
23873;DHT22;42884;50.718;4.630;2023-03-03T05:13:26;2.00;99.90
23873;DHT22;42884;50.718;4.630;2023-03-03T05:15:53;2.30;99.90
23873;DHT22;42884;50.718;4.630;2023-03-03T05:18:22;2.20;99.90
23873;DHT22;42884;50.718;4.630;2023-03-03T05:20:49;2.20;99.90
23873;DHT22;42884;50.718;4.630;2023-03-03T05:23:15;2.10;99.90
23873;DHT22;42884;50.718;4.630;2023-03-03T05:25:40;2.20;99.90
23873;DHT22;42884;50.718;4.630;2023-03-03T05:28:07;2.10;99.90
23873;DHT22;42884;50.718;4.630;2023-03-03T05:30:32;2.00;99.90
23873;DHT22;42884;50.718;4.630;2023-03-03T05:32:58;2.10;99.90
23873;DHT22;42884;50.718;4.630;2023-03-03T05:35:24;2.10;99.90
23873;DHT22;42884;50.718;4.630;2023-03-03T05:37:49;2.20;99.90
23873;DHT22;42884;50.718;4.630;2023-03-03T05:40:17;2.20;99.90
23873;DHT22;42884;50.718;4.630;2023-03-03T05:42:43;2.20;99.90
23873;DHT22;42884;50.718;4.630;2023-03-03T05:45:09;2.20;99.90
23873;DHT22;42884;50.718;4.630;2023-03-03T05:47:34;2.30;99.90
23873;DHT22;42884;50.718;4.630;2023-03-03T05:50:00;2.20;99.90
23873;DHT22;42884;50.718;4.630;2023-03-03T05:52:25;2.20;99.90
23873;DHT22;42884;50.718;4.630;2023-03-03T05:54:51;2.20;99.90
23873;DHT22;42884;50.718;4.630;2023-03-03T05:57:17;2.20;99.90
23873;DHT22;42884;50.718;4.630;2023-03-03T05:59:42;2.20;99.90
23873;DHT22;42884;50.718;4.630;2023-03-03T06:02:08;2.20;99.90
23873;DHT22;42884;50.718;4.630;2023-03-03T06:04:33;2.20;99.90
23873;DHT22;42884;50.718;4.630;2023-03-03T06:06:59;2.20;99.90
23873;DHT22;42884;50.718;4.630;2023-03-03T06:09:25;2.20;99.90
23873;DHT22;42884;50.718;4.630;2023-03-03T06:11:51;2.20;99.90
23873;DHT22;42884;50.718;4.630;2023-03-03T06:14:18;2.30;99.90
23873;DHT22;42884;50.718;4.630;2023-03-03T06:16:45;2.10;99.90
23873;DHT22;42884;50.718;4.630;2023-03-03T06:19:11;1.90;99.90
23873;DHT22;42884;50.718;4.630;2023-03-03T06:21:36;2.10;99.90
23873;DHT22;42884;50.718;4.630;2023-03-03T06:24:02;2.00;99.90
23873;DHT22;42884;50.718;4.630;2023-03-03T06:26:28;2.10;99.90
23873;DHT22;42884;50.718;4.630;2023-03-03T06:28:54;1.90;99.90
23873;DHT22;42884;50.718;4.630;2023-03-03T06:31:19;1.80;99.90
23873;DHT22;42884;50.718;4.630;2023-03-03T06:33:45;1.80;99.90
23873;DHT22;42884;50.718;4.630;2023-03-03T06:36:11;1.70;99.90
23873;DHT22;42884;50.718;4.630;2023-03-03T06:38:36;1.70;99.90
23873;DHT22;42884;50.718;4.630;2023-03-03T06:41:02;1.70;99.90
23873;DHT22;42884;50.718;4.630;2023-03-03T06:43:34;1.70;99.90
23873;DHT22;42884;50.718;4.630;2023-03-03T06:46:01;1.80;99.90
23873;DHT22;42884;50.718;4.630;2023-03-03T06:48:26;1.80;99.90
23873;DHT22;42884;50.718;4.630;2023-03-03T06:50:52;1.90;99.90
23873;DHT22;42884;50.718;4.630;2023-03-03T06:53:18;1.80;99.90
23873;DHT22;42884;50.718;4.630;2023-03-03T06:55:44;1.90;99.90
23873;DHT22;42884;50.718;4.630;2023-03-03T06:58:14;1.80;99.90
23873;DHT22;42884;50.718;4.630;2023-03-03T07:00:43;1.80;99.90
23873;DHT22;42884;50.718;4.630;2023-03-03T07:05:38;1.60;99.90
23873;DHT22;42884;50.718;4.630;2023-03-03T07:08:20;1.50;99.90
23873;DHT22;42884;50.718;4.630;2023-03-03T07:10:46;1.60;99.90
23873;DHT22;42884;50.718;4.630;2023-03-03T07:13:17;1.70;99.90
23873;DHT22;42884;50.718;4.630;2023-03-03T07:15:43;1.60;99.90
23873;DHT22;42884;50.718;4.630;2023-03-03T07:23:45;1.80;99.90
23873;DHT22;42884;50.718;4.630;2023-03-03T07:26:12;1.80;99.90
23873;DHT22;42884;50.718;4.630;2023-03-03T07:28:41;2.00;99.90
23873;DHT22;42884;50.718;4.630;2023-03-03T07:31:23;2.10;99.90
23873;DHT22;42884;50.718;4.630;2023-03-03T07:33:50;2.10;99.90
23873;DHT22;42884;50.718;4.630;2023-03-03T07:38:54;2.10;99.90
23873;DHT22;42884;50.718;4.630;2023-03-03T07:41:21;1.90;99.90
23873;DHT22;42884;50.718;4.630;2023-03-03T07:48:52;2.20;99.90
23873;DHT22;42884;50.718;4.630;2023-03-03T07:51:19;2.30;99.90
23873;DHT22;42884;50.718;4.630;2023-03-03T07:53:46;2.30;99.90
23873;DHT22;42884;50.718;4.630;2023-03-03T07:58:56;2.30;99.90
23873;DHT22;42884;50.718;4.630;2023-03-03T08:01:27;2.20;99.90
23873;DHT22;42884;50.718;4.630;2023-03-03T08:03:54;2.20;99.90
23873;DHT22;42884;50.718;4.630;2023-03-03T08:09:01;2.00;99.90
23873;DHT22;42884;50.718;4.630;2023-03-03T08:14:25;1.90;99.90
23873;DHT22;42884;50.718;4.630;2023-03-03T08:16:52;1.80;99.90
23873;DHT22;42884;50.718;4.630;2023-03-03T08:19:17;1.90;99.90
23873;DHT22;42884;50.718;4.630;2023-03-03T08:21:43;2.00;99.90
23873;DHT22;42884;50.718;4.630;2023-03-03T08:24:09;1.90;99.90
23873;DHT22;42884;50.718;4.630;2023-03-03T08:26:34;2.00;99.90
23873;DHT22;42884;50.718;4.630;2023-03-03T08:29:00;2.00;99.90
23873;DHT22;42884;50.718;4.630;2023-03-03T08:31:26;2.00;99.90
23873;DHT22;42884;50.718;4.630;2023-03-03T08:33:51;2.00;99.90
23873;DHT22;42884;50.718;4.630;2023-03-03T08:36:17;2.00;99.90
23873;DHT22;42884;50.718;4.630;2023-03-03T08:38:43;2.10;99.90
23873;DHT22;42884;50.718;4.630;2023-03-03T08:41:08;2.30;99.90
23873;DHT22;42884;50.718;4.630;2023-03-03T08:43:34;2.30;99.90
23873;DHT22;42884;50.718;4.630;2023-03-03T08:46:00;2.30;99.90
23873;DHT22;42884;50.718;4.630;2023-03-03T08:48:27;2.30;99.90
23873;DHT22;42884;50.718;4.630;2023-03-03T08:50:53;2.40;99.90
23873;DHT22;42884;50.718;4.630;2023-03-03T08:53:19;2.50;99.90
23873;DHT22;42884;50.718;4.630;2023-03-03T08:55:45;2.30;99.90
23873;DHT22;42884;50.718;4.630;2023-03-03T08:58:10;2.40;99.90
23873;DHT22;42884;50.718;4.630;2023-03-03T09:00:36;2.40;99.90
23873;DHT22;42884;50.718;4.630;2023-03-03T09:03:03;2.60;99.90
23873;DHT22;42884;50.718;4.630;2023-03-03T09:05:31;2.70;99.90
23873;DHT22;42884;50.718;4.630;2023-03-03T09:07:57;2.70;99.90
23873;DHT22;42884;50.718;4.630;2023-03-03T09:10:24;2.80;99.90
23873;DHT22;42884;50.718;4.630;2023-03-03T09:12:55;2.80;99.90
23873;DHT22;42884;50.718;4.630;2023-03-03T09:15:24;2.80;99.90
23873;DHT22;42884;50.718;4.630;2023-03-03T09:17:50;2.80;99.90
23873;DHT22;42884;50.718;4.630;2023-03-03T09:20:20;2.90;99.90
23873;DHT22;42884;50.718;4.630;2023-03-03T09:22:47;3.00;99.90
23873;DHT22;42884;50.718;4.630;2023-03-03T09:25:17;3.00;99.90
23873;DHT22;42884;50.718;4.630;2023-03-03T09:27:45;2.80;99.90
23873;DHT22;42884;50.718;4.630;2023-03-03T09:32:48;2.70;99.90
23873;DHT22;42884;50.718;4.630;2023-03-03T09:37:52;2.90;99.90
23873;DHT22;42884;50.718;4.630;2023-03-03T09:40:37;2.80;99.90
23873;DHT22;42884;50.718;4.630;2023-03-03T09:43:10;2.80;99.90
23873;DHT22;42884;50.718;4.630;2023-03-03T09:48:19;2.90;99.90
23873;DHT22;42884;50.718;4.630;2023-03-03T09:50:57;2.90;99.90
23873;DHT22;42884;50.718;4.630;2023-03-03T09:53:27;2.80;99.90
23873;DHT22;42884;50.718;4.630;2023-03-03T10:04:00;3.00;99.90
23873;DHT22;42884;50.718;4.630;2023-03-03T10:11:22;3.50;99.90
23873;DHT22;42884;50.718;4.630;2023-03-03T10:13:59;3.60;99.90
23873;DHT22;42884;50.718;4.630;2023-03-03T10:24:27;3.80;99.90
23873;DHT22;42884;50.718;4.630;2023-03-03T10:40:25;4.30;99.90
23873;DHT22;42884;50.718;4.630;2023-03-03T10:42:56;4.30;99.90
23873;DHT22;42884;50.718;4.630;2023-03-03T11:00:23;4.70;99.90
23873;DHT22;42884;50.718;4.630;2023-03-03T11:05:27;4.70;99.90
23873;DHT22;42884;50.718;4.630;2023-03-03T11:07:55;4.80;99.90
23873;DHT22;42884;50.718;4.630;2023-03-03T11:12:59;4.80;99.90
23873;DHT22;42884;50.718;4.630;2023-03-03T11:26:04;4.70;99.90
23873;DHT22;42884;50.718;4.630;2023-03-03T11:28:40;4.70;99.90
23873;DHT22;42884;50.718;4.630;2023-03-03T11:33:48;4.50;99.90
23873;DHT22;42884;50.718;4.630;2023-03-03T11:36:35;4.70;99.90
23873;DHT22;42884;50.718;4.630;2023-03-03T11:39:03;4.80;99.90
23873;DHT22;42884;50.718;4.630;2023-03-03T11:41:32;4.80;99.90
23873;DHT22;42884;50.718;4.630;2023-03-03T11:44:19;4.80;99.90
23873;DHT22;42884;50.718;4.630;2023-03-03T11:46:57;4.70;99.90
23873;DHT22;42884;50.718;4.630;2023-03-03T11:49:30;4.80;99.90
23873;DHT22;42884;50.718;4.630;2023-03-03T11:52:05;4.80;99.90
23873;DHT22;42884;50.718;4.630;2023-03-03T11:54:48;4.80;99.90
23873;DHT22;42884;50.718;4.630;2023-03-03T11:57:32;4.90;99.90
23873;DHT22;42884;50.718;4.630;2023-03-03T12:02:43;4.80;99.90
23873;DHT22;42884;50.718;4.630;2023-03-03T12:05:12;4.80;99.90
23873;DHT22;42884;50.718;4.630;2023-03-03T12:07:44;4.90;99.90
23873;DHT22;42884;50.718;4.630;2023-03-03T12:10:23;5.10;99.90
23873;DHT22;42884;50.718;4.630;2023-03-03T12:13:05;5.00;99.90
23873;DHT22;42884;50.718;4.630;2023-03-03T12:20:32;5.00;99.90
23873;DHT22;42884;50.718;4.630;2023-03-03T12:28:21;5.40;99.90
23873;DHT22;42884;50.718;4.630;2023-03-03T12:33:21;5.80;99.90
23873;DHT22;42884;50.718;4.630;2023-03-03T12:43:41;6.00;99.90
23873;DHT22;42884;50.718;4.630;2023-03-03T12:48:45;6.00;99.90
23873;DHT22;42884;50.718;4.630;2023-03-03T12:51:24;5.80;99.90
23873;DHT22;42884;50.718;4.630;2023-03-03T12:59:03;5.50;99.90
23873;DHT22;42884;50.718;4.630;2023-03-03T13:06:31;5.60;99.90
23873;DHT22;42884;50.718;4.630;2023-03-03T13:09:41;5.80;99.90
23873;DHT22;42884;50.718;4.630;2023-03-03T13:14:42;6.00;99.90
23873;DHT22;42884;50.718;4.630;2023-03-03T13:17:16;6.10;99.90
23873;DHT22;42884;50.718;4.630;2023-03-03T13:20:07;6.20;99.90
23873;DHT22;42884;50.718;4.630;2023-03-03T13:22:40;6.30;99.90
23873;DHT22;42884;50.718;4.630;2023-03-03T13:27:53;6.10;99.90
23873;DHT22;42884;50.718;4.630;2023-03-03T13:30:28;6.30;99.90
23873;DHT22;42884;50.718;4.630;2023-03-03T13:35:24;6.70;99.90
23873;DHT22;42884;50.718;4.630;2023-03-03T13:37:52;6.60;99.90
23873;DHT22;42884;50.718;4.630;2023-03-03T13:40:21;6.90;99.90
23873;DHT22;42884;50.718;4.630;2023-03-03T13:50:51;6.90;99.90
23873;DHT22;42884;50.718;4.630;2023-03-03T13:55:59;7.30;99.90
23873;DHT22;42884;50.718;4.630;2023-03-03T14:06:01;7.80;99.90
23873;DHT22;42884;50.718;4.630;2023-03-03T14:08:50;7.70;99.90
23873;DHT22;42884;50.718;4.630;2023-03-03T14:11:16;8.30;99.90
23873;DHT22;42884;50.718;4.630;2023-03-03T14:16:38;9.00;99.90
23873;DHT22;42884;50.718;4.630;2023-03-03T14:19:09;9.80;99.90
23873;DHT22;42884;50.718;4.630;2023-03-03T14:21:38;10.60;99.90
23873;DHT22;42884;50.718;4.630;2023-03-03T14:24:06;11.60;99.90
23873;DHT22;42884;50.718;4.630;2023-03-03T14:26:44;12.20;99.90
23873;DHT22;42884;50.718;4.630;2023-03-03T14:29:29;12.80;99.90
23873;DHT22;42884;50.718;4.630;2023-03-03T14:32:04;13.60;99.90
23873;DHT22;42884;50.718;4.630;2023-03-03T14:34:44;13.90;99.90
23873;DHT22;42884;50.718;4.630;2023-03-03T14:37:24;14.00;99.90
23873;DHT22;42884;50.718;4.630;2023-03-03T14:39:58;14.20;99.90
23873;DHT22;42884;50.718;4.630;2023-03-03T14:42:30;13.30;99.90
23873;DHT22;42884;50.718;4.630;2023-03-03T14:44:56;13.00;99.90
23873;DHT22;42884;50.718;4.630;2023-03-03T14:47:28;12.60;99.90
23873;DHT22;42884;50.718;4.630;2023-03-03T14:49:54;12.40;99.90
23873;DHT22;42884;50.718;4.630;2023-03-03T14:52:28;11.70;99.90
23873;DHT22;42884;50.718;4.630;2023-03-03T14:54:55;11.50;99.90
23873;DHT22;42884;50.718;4.630;2023-03-03T15:00:47;11.30;99.90
23873;DHT22;42884;50.718;4.630;2023-03-03T15:03:28;11.20;99.90
23873;DHT22;42884;50.718;4.630;2023-03-03T15:05:54;10.90;99.90
23873;DHT22;42884;50.718;4.630;2023-03-03T15:08:26;10.30;99.90
23873;DHT22;42884;50.718;4.630;2023-03-03T15:10:54;10.10;99.90
23873;DHT22;42884;50.718;4.630;2023-03-03T15:13:35;9.80;99.90
23873;DHT22;42884;50.718;4.630;2023-03-03T15:16:03;9.90;99.90
23873;DHT22;42884;50.718;4.630;2023-03-03T15:18:30;9.80;99.90
23873;DHT22;42884;50.718;4.630;2023-03-03T15:21:13;9.60;99.90
23873;DHT22;42884;50.718;4.630;2023-03-03T15:34:23;9.60;99.90
23873;DHT22;42884;50.718;4.630;2023-03-03T15:39:38;9.30;99.90
23873;DHT22;42884;50.718;4.630;2023-03-03T15:42:23;9.10;99.90
23873;DHT22;42884;50.718;4.630;2023-03-03T15:57:51;9.00;99.90
23873;DHT22;42884;50.718;4.630;2023-03-03T16:02:56;8.80;99.90
23873;DHT22;42884;50.718;4.630;2023-03-03T16:10:19;8.60;99.90
23873;DHT22;42884;50.718;4.630;2023-03-03T16:17:55;8.40;99.90
23873;DHT22;42884;50.718;4.630;2023-03-03T16:23:07;8.30;99.90
23873;DHT22;42884;50.718;4.630;2023-03-03T16:30:37;8.20;99.90
23873;DHT22;42884;50.718;4.630;2023-03-03T16:33:13;8.10;99.90
23873;DHT22;42884;50.718;4.630;2023-03-03T16:35:41;8.10;99.90
23873;DHT22;42884;50.718;4.630;2023-03-03T16:38:11;8.00;99.90
23873;DHT22;42884;50.718;4.630;2023-03-03T16:40:45;8.10;99.90
23873;DHT22;42884;50.718;4.630;2023-03-03T16:45:39;8.00;99.90
23873;DHT22;42884;50.718;4.630;2023-03-03T16:48:21;8.00;99.90
23873;DHT22;42884;50.718;4.630;2023-03-03T16:51:03;8.00;99.90
23873;DHT22;42884;50.718;4.630;2023-03-03T17:03:53;7.40;99.90
23873;DHT22;42884;50.718;4.630;2023-03-03T17:22:06;6.70;99.90
23873;DHT22;42884;50.718;4.630;2023-03-03T17:29:53;6.20;99.90
23873;DHT22;42884;50.718;4.630;2023-03-03T17:32:33;6.10;99.90
23873;DHT22;42884;50.718;4.630;2023-03-03T17:37:55;5.70;99.90
23873;DHT22;42884;50.718;4.630;2023-03-03T17:43:11;5.30;99.90
23873;DHT22;42884;50.718;4.630;2023-03-03T17:45:40;5.20;99.90
23873;DHT22;42884;50.718;4.630;2023-03-03T18:03:28;4.30;99.90
23873;DHT22;42884;50.718;4.630;2023-03-03T18:08:33;4.30;99.90
23873;DHT22;42884;50.718;4.630;2023-03-03T18:11:18;4.30;99.90
23873;DHT22;42884;50.718;4.630;2023-03-03T18:24:24;4.30;99.90
23873;DHT22;42884;50.718;4.630;2023-03-03T18:26:51;4.40;99.90
23873;DHT22;42884;50.718;4.630;2023-03-03T18:36:50;4.30;99.90
23873;DHT22;42884;50.718;4.630;2023-03-03T18:39:23;4.30;99.90
23873;DHT22;42884;50.718;4.630;2023-03-03T18:42:09;4.30;99.90
23873;DHT22;42884;50.718;4.630;2023-03-03T18:44:35;4.20;99.90
23873;DHT22;42884;50.718;4.630;2023-03-03T18:47:00;4.20;99.90
23873;DHT22;42884;50.718;4.630;2023-03-03T18:52:21;4.20;99.90
23873;DHT22;42884;50.718;4.630;2023-03-03T18:57:33;4.20;99.90
23873;DHT22;42884;50.718;4.630;2023-03-03T19:02:36;4.20;99.90
23873;DHT22;42884;50.718;4.630;2023-03-03T19:05:14;4.30;99.90
23873;DHT22;42884;50.718;4.630;2023-03-03T19:20:45;4.40;99.90
23873;DHT22;42884;50.718;4.630;2023-03-03T19:23:14;4.30;99.90
23873;DHT22;42884;50.718;4.630;2023-03-03T19:25:40;4.40;99.90
23873;DHT22;42884;50.718;4.630;2023-03-03T19:30:48;4.50;99.90
23873;DHT22;42884;50.718;4.630;2023-03-03T19:35:50;4.60;99.90
23873;DHT22;42884;50.718;4.630;2023-03-03T19:48:47;4.60;99.90
23873;DHT22;42884;50.718;4.630;2023-03-03T19:51:25;4.70;99.90
23873;DHT22;42884;50.718;4.630;2023-03-03T19:53:55;4.50;99.90
23873;DHT22;42884;50.718;4.630;2023-03-03T20:01:41;4.60;99.90
23873;DHT22;42884;50.718;4.630;2023-03-03T20:06:54;4.70;99.90
23873;DHT22;42884;50.718;4.630;2023-03-03T20:09:38;4.70;99.90
23873;DHT22;42884;50.718;4.630;2023-03-03T20:22:31;4.70;99.90
23873;DHT22;42884;50.718;4.630;2023-03-03T20:27:49;4.70;99.90
23873;DHT22;42884;50.718;4.630;2023-03-03T20:45:53;4.90;99.90
23873;DHT22;42884;50.718;4.630;2023-03-03T20:53:44;4.80;99.90
23873;DHT22;42884;50.718;4.630;2023-03-03T20:56:13;4.80;99.90
23873;DHT22;42884;50.718;4.630;2023-03-03T20:58:51;4.90;99.90
23873;DHT22;42884;50.718;4.630;2023-03-03T21:01:22;4.90;99.90
23873;DHT22;42884;50.718;4.630;2023-03-03T21:03:51;4.90;99.90
23873;DHT22;42884;50.718;4.630;2023-03-03T21:06:17;5.00;99.90
23873;DHT22;42884;50.718;4.630;2023-03-03T21:11:11;4.90;99.90
23873;DHT22;42884;50.718;4.630;2023-03-03T21:18:34;4.80;99.90
23873;DHT22;42884;50.718;4.630;2023-03-03T21:21:00;4.80;99.90
23873;DHT22;42884;50.718;4.630;2023-03-03T21:23:26;4.90;99.90
23873;DHT22;42884;50.718;4.630;2023-03-03T21:25:52;4.90;99.90
23873;DHT22;42884;50.718;4.630;2023-03-03T21:33:45;5.00;99.90
23873;DHT22;42884;50.718;4.630;2023-03-03T21:36:21;5.00;99.90
23873;DHT22;42884;50.718;4.630;2023-03-03T21:38:48;5.00;99.90
23873;DHT22;42884;50.718;4.630;2023-03-03T21:41:15;5.00;99.90
23873;DHT22;42884;50.718;4.630;2023-03-03T21:46:06;5.00;99.90
23873;DHT22;42884;50.718;4.630;2023-03-03T21:48:32;4.90;99.90
23873;DHT22;42884;50.718;4.630;2023-03-03T21:50:58;4.90;99.90
23873;DHT22;42884;50.718;4.630;2023-03-03T21:53:23;4.90;99.90
23873;DHT22;42884;50.718;4.630;2023-03-03T21:55:54;5.00;99.90
23873;DHT22;42884;50.718;4.630;2023-03-03T21:58:19;5.00;99.90
23873;DHT22;42884;50.718;4.630;2023-03-03T22:00:45;5.00;99.90
23873;DHT22;42884;50.718;4.630;2023-03-03T22:03:11;5.00;99.90
23873;DHT22;42884;50.718;4.630;2023-03-03T22:05:38;5.00;99.90
23873;DHT22;42884;50.718;4.630;2023-03-03T22:08:04;5.00;99.90
23873;DHT22;42884;50.718;4.630;2023-03-03T22:10:30;5.00;99.90
23873;DHT22;42884;50.718;4.630;2023-03-03T22:12:56;5.00;99.90
23873;DHT22;42884;50.718;4.630;2023-03-03T22:15:21;5.10;99.90
23873;DHT22;42884;50.718;4.630;2023-03-03T22:17:47;5.10;99.90
23873;DHT22;42884;50.718;4.630;2023-03-03T22:20:13;5.10;99.90
23873;DHT22;42884;50.718;4.630;2023-03-03T22:22:40;5.00;99.90
23873;DHT22;42884;50.718;4.630;2023-03-03T22:25:06;5.10;99.90
23873;DHT22;42884;50.718;4.630;2023-03-03T22:27:31;5.10;99.90
23873;DHT22;42884;50.718;4.630;2023-03-03T22:29:57;5.10;99.90
23873;DHT22;42884;50.718;4.630;2023-03-03T22:32:23;5.10;99.90
23873;DHT22;42884;50.718;4.630;2023-03-03T22:34:48;5.10;99.90
23873;DHT22;42884;50.718;4.630;2023-03-03T22:37:14;5.10;99.90